createdAt,value
2019-02-10T00:04:08.951Z,97584.03
2019-02-10T00:10:34.730Z,97573.67
2019-02-10T00:17:02.574Z,97572.19
2019-02-10T00:23:39.502Z,97552.61
2019-02-10T00:30:05.324Z,97537.22
2019-02-10T00:36:33.657Z,97496.45
2019-02-10T00:43:11.898Z,97517.02
2019-02-10T00:53:01.733Z,97496.45
2019-02-10T00:59:25.539Z,97472.03
2019-02-10T01:05:54.253Z,97461.83
2019-02-10T01:12:22.149Z,97445.84
2019-02-10T01:19:33.724Z,97434.67
2019-02-10T01:25:59.313Z,97405.72
2019-02-10T01:35:43.324Z,97371.45
2019-02-10T01:42:11.164Z,97346.53
2019-02-10T01:48:50.112Z,97338.48
2019-02-10T01:55:06.843Z,97325.22
2019-02-10T02:01:33.368Z,97306.95
2019-02-10T02:08:03.314Z,97283.67
2019-02-10T02:14:40.462Z,97270.22
2019-02-10T02:21:06.075Z,97282.84
2019-02-10T02:27:33.562Z,97265.84
2019-02-10T02:33:36.475Z,97261.28
2019-02-10T02:40:02.330Z,97240.57
2019-02-10T02:46:32.389Z,97207.72
2019-02-10T02:56:46.271Z,97194.77
2019-02-10T03:03:12.941Z,97184.53
2019-02-10T03:09:53.947Z,97166.88
2019-02-10T03:16:20.092Z,97161.02
2019-02-10T03:22:47.697Z,97136.56
2019-02-10T03:29:24.602Z,97139.30
2019-02-10T03:35:18.360Z,97136.17
2019-02-10T03:41:46.206Z,97133.70
2019-02-10T03:48:13.034Z,97091.77
2019-02-10T03:57:41.660Z,97050.79
2019-02-10T04:04:26.297Z,97042.02
2019-02-10T04:10:55.517Z,97023.85
2019-02-10T04:17:24.961Z,96998.24
2019-02-10T04:23:50.008Z,96991.86
2019-02-10T04:30:29.768Z,96968.37
2019-02-10T04:36:59.711Z,96939.96
2019-02-10T04:43:25.826Z,96932.59
2019-02-10T04:50:02.766Z,96908.86
2019-02-10T05:00:03.715Z,96875.93
2019-02-10T05:06:31.552Z,96860.09
2019-02-10T05:12:57.116Z,96853.73
2019-02-10T05:19:36.071Z,96830.34
2019-02-10T05:26:04.166Z,96815.69
2019-02-10T05:32:30.995Z,96784.60
2019-02-10T05:39:00.853Z,96773.75
2019-02-10T05:45:39.805Z,96761.70
2019-02-10T05:52:05.393Z,96740.34
2019-02-10T06:02:28.409Z,96703.31
2019-02-10T06:08:54.258Z,96678.83
2019-02-10T06:15:31.540Z,96652.55
2019-02-10T06:22:02.426Z,96637.48
2019-02-10T06:28:29.009Z,96615.48
2019-02-10T06:34:42.947Z,96608.59
2019-02-10T06:41:08.763Z,96605.09
2019-02-10T06:47:37.615Z,96604.50
2019-02-10T06:54:04.212Z,96593.21
2019-02-10T07:03:56.093Z,96578.11
2019-02-10T07:10:35.055Z,96572.19
2019-02-10T07:17:51.286Z,96570.39
2019-02-10T07:25:02.601Z,96542.20
2019-02-10T07:31:43.610Z,96544.39
2019-02-10T07:39:19.089Z,96521.69
2019-02-10T07:46:28.575Z,96505.77
2019-02-10T07:54:06.107Z,96487.16
2019-02-10T08:05:03.614Z,96444.30
2019-02-10T08:12:08.480Z,96433.78
2019-02-10T08:19:52.162Z,96413.74
2019-02-10T08:27:26.421Z,96409.00
2019-02-10T08:34:17.995Z,96387.77
2019-02-10T08:41:19.964Z,96365.33
2019-02-10T08:48:39.512Z,96344.16
2019-02-10T08:55:06.141Z,96325.82
2019-02-10T09:05:22.194Z,96311.53
2019-02-10T09:11:48.047Z,96300.98
2019-02-10T09:17:50.540Z,96291.74
2019-02-10T09:24:18.696Z,96275.86
2019-02-10T09:30:50.025Z,96271.22
2019-02-10T09:37:15.392Z,96252.50
2019-02-10T09:43:53.430Z,96243.52
2019-02-10T09:50:20.156Z,96246.36
2019-02-10T09:56:45.977Z,96228.56
2019-02-10T10:06:11.380Z,96205.67
2019-02-10T10:12:39.287Z,96200.30
2019-02-10T10:19:06.243Z,96211.74
2019-02-10T10:25:49.491Z,96190.97
2019-02-10T10:32:12.802Z,96185.27
2019-02-10T10:42:24.756Z,96168.69
2019-02-10T10:48:52.937Z,96153.06
2019-02-10T10:55:18.514Z,96143.21
2019-02-10T11:01:47.681Z,96135.55
2019-02-10T11:07:37.844Z,96141.02
2019-02-10T11:14:01.644Z,96127.78
2019-02-10T11:20:27.504Z,96114.11
2019-02-10T11:27:07.273Z,96097.17
2019-02-10T11:33:33.475Z,96091.47
2019-02-10T11:40:05.116Z,96085.72
2019-02-10T11:46:43.355Z,96067.33
2019-02-10T11:53:07.883Z,96061.41
2019-02-10T11:59:38.976Z,96051.54
2019-02-10T12:09:11.274Z,96039.52
2019-02-10T12:15:37.134Z,96035.45
2019-02-10T12:22:16.413Z,96034.31
2019-02-10T12:28:42.232Z,96034.84
2019-02-10T12:35:09.830Z,96047.08
2019-02-10T12:41:48.789Z,96046.63
2019-02-10T12:48:14.636Z,96051.48
2019-02-10T12:54:44.582Z,96053.85
2019-02-10T13:01:22.640Z,96017.73
2019-02-10T13:11:01.386Z,96042.88
2019-02-10T13:17:27.206Z,96027.80
2019-02-10T13:23:54.840Z,96028.17
2019-02-10T13:30:21.876Z,96055.25
2019-02-10T13:37:01.835Z,96065.12
2019-02-10T13:43:33.404Z,96078.73
2019-02-10T13:49:54.487Z,96090.30
2019-02-10T13:56:33.165Z,96098.84
2019-02-10T14:02:59.034Z,96101.45
2019-02-10T14:08:50.735Z,96102.66
2019-02-10T14:15:18.356Z,96110.50
2019-02-10T14:21:57.314Z,96130.45
2019-02-10T14:28:23.992Z,96142.14
2019-02-10T14:31:36.913Z,96137.59
2019-02-10T14:38:05.108Z,96133.90
2019-02-10T14:44:31.937Z,96147.70
2019-02-10T14:50:56.747Z,96164.30
2019-02-10T14:57:35.465Z,96131.44
2019-02-10T15:04:01.314Z,96146.53
2019-02-10T15:09:55.017Z,96135.53
2019-02-10T15:16:08.711Z,96143.13
2019-02-10T15:22:48.675Z,96158.43
2019-02-10T15:29:17.271Z,96166.30
2019-02-10T15:35:43.121Z,96164.63
2019-02-10T15:42:21.266Z,96198.55
2019-02-10T15:48:45.883Z,96215.41
2019-02-10T15:55:14.605Z,96216.20
2019-02-10T16:01:18.335Z,96229.20
2019-02-10T16:07:57.288Z,96220.16
2019-02-10T16:14:11.197Z,96210.80
2019-02-10T16:20:37.927Z,96223.44
2019-02-10T16:27:17.705Z,96254.41
2019-02-10T16:33:45.603Z,96241.04
2019-02-10T16:40:16.697Z,96258.87
2019-02-10T16:46:44.533Z,96275.66
2019-02-10T16:53:21.463Z,96301.61
2019-02-10T16:59:47.026Z,96321.28
2019-02-10T17:06:17.791Z,96335.96
2019-02-10T17:15:49.606Z,96364.91
2019-02-10T17:22:28.560Z,96376.38
2019-02-10T17:28:59.644Z,96388.85
2019-02-10T17:35:27.236Z,96415.92
2019-02-10T17:41:53.076Z,96418.22
2019-02-10T17:48:29.986Z,96443.27
2019-02-10T17:54:55.834Z,96443.77
2019-02-10T18:01:23.741Z,96472.31
2019-02-10T18:08:01.826Z,96479.92
2019-02-10T18:14:43.803Z,96465.92
2019-02-10T18:21:36.590Z,96473.31
2019-02-10T18:28:27.966Z,96483.90
2019-02-10T18:35:35.874Z,96486.59
2019-02-10T18:42:38.389Z,96498.57
2019-02-10T18:49:17.335Z,96505.55
2019-02-10T18:56:14.115Z,96512.31
2019-02-10T19:03:03.516Z,96521.88
2019-02-10T19:09:46.506Z,96522.28
2019-02-10T19:19:56.268Z,96553.79
2019-02-10T19:26:22.113Z,96585.63
2019-02-10T19:32:59.030Z,96586.45
2019-02-10T19:40:01.486Z,96621.34
2019-02-10T19:46:52.168Z,96642.47
2019-02-10T19:53:56.762Z,96657.92
2019-02-10T20:00:50.632Z,96665.80
2019-02-10T20:07:38.887Z,96692.53
2019-02-10T20:14:26.566Z,96700.63
2019-02-10T20:21:10.850Z,96708.97
2019-02-10T20:28:03.004Z,96725.26
2019-02-10T20:34:44.740Z,96761.13
2019-02-10T20:41:17.871Z,96775.39
2019-02-10T20:48:04.904Z,96787.44
2019-02-10T20:54:52.675Z,96797.23
2019-02-10T21:01:41.462Z,96811.98
2019-02-10T21:08:21.955Z,96836.55
2019-02-10T21:15:19.083Z,96847.78
2019-02-10T21:21:55.944Z,96889.45
2019-02-10T21:28:33.981Z,96900.31
2019-02-10T21:35:12.902Z,96924.09
2019-02-10T21:41:54.863Z,96948.20
2019-02-10T21:48:33.419Z,96952.18
2019-02-10T21:55:11.552Z,96957.16
2019-02-10T22:01:38.604Z,96957.66
2019-02-10T22:08:07.451Z,96965.83
2019-02-10T22:14:34.282Z,96971.86
2019-02-10T22:20:58.096Z,96988.37
2019-02-10T22:27:25.713Z,97007.18
2019-02-10T22:33:52.752Z,97021.91
2019-02-10T22:40:18.572Z,97044.28
2019-02-10T22:46:44.387Z,97074.09
2019-02-10T22:53:10.212Z,97084.94
2019-02-10T22:59:35.793Z,97086.08
2019-02-10T23:06:16.794Z,97090.29
2019-02-10T23:12:43.831Z,97117.75
2019-02-10T23:22:20.187Z,97151.42
2019-02-10T23:28:46.362Z,97159.87
2019-02-10T23:35:14.203Z,97168.28
2019-02-10T23:41:51.132Z,97190.30
2019-02-10T23:48:18.746Z,97199.09
2019-02-10T23:54:45.806Z,97214.14
